Time,TemperatureF,DewpointF,PressureIn,WindDirection,WindDirectionDegrees,WindSpeedMPH,WindSpeedGustMPH,Humidity,HourlyPrecipIn,Conditions,Clouds,dailyrainin,SoftwareType,DateUTC
2013-05-23 00:02:00,45.0,28.0,-100.00,NNW,329,4.0,6.0,50,0.00,,,-99.99,,2013-05-23 06:02:00,
2013-05-23 00:12:00,43.0,31.0,-100.00,WNW,301,4.0,9.0,63,0.00,,,-99.99,,2013-05-23 06:12:00,
2013-05-23 00:21:00,42.0,31.0,-100.00,NNW,339,5.0,7.0,65,0.00,,,-99.99,,2013-05-23 06:21:00,
2013-05-23 00:31:00,42.0,31.0,-100.00,NNW,339,5.0,7.0,65,0.00,,,-99.99,,2013-05-23 06:31:00,
2013-05-23 00:41:00,42.0,31.0,-100.00,NNW,339,5.0,7.0,65,0.00,,,-99.99,,2013-05-23 06:41:00,
2013-05-23 00:52:00,42.0,32.0,-100.00,NW,320,4.0,6.0,68,0.00,,,-99.99,,2013-05-23 06:52:00,
2013-05-23 01:01:00,42.0,32.0,-100.00,NW,320,4.0,6.0,68,0.00,,,-99.99,,2013-05-23 07:01:00,
2013-05-23 01:11:00,42.0,32.0,-100.00,NW,320,4.0,6.0,68,0.00,,,-99.99,,2013-05-23 07:11:00,
2013-05-23 01:21:00,41.0,33.0,-100.00,North,0,2.0,4.0,74,0.00,,,-99.99,,2013-05-23 07:21:00,
2013-05-23 01:31:00,41.0,33.0,-100.00,North,0,2.0,4.0,74,0.00,,,-99.99,,2013-05-23 07:31:00,
2013-05-23 01:42:00,40.0,33.0,-100.00,SW,236,2.0,2.0,74,0.00,,,-99.99,,2013-05-23 07:42:00,
2013-05-23 01:59:00,38.0,31.0,-100.00,SSE,150,3.0,3.0,76,0.00,,,-99.99,,2013-05-23 07:59:00,
2013-05-23 02:11:00,38.0,31.0,-100.00,SSE,150,3.0,3.0,76,0.00,,,-99.99,,2013-05-23 08:11:00,
2013-05-23 02:21:00,38.0,32.0,-100.00,ESE,109,3.0,4.0,78,0.00,,,-99.99,,2013-05-23 08:21:00,
2013-05-23 02:31:00,38.0,32.0,-100.00,ESE,109,3.0,4.0,78,0.00,,,-99.99,,2013-05-23 08:31:00,
2013-05-23 02:41:00,38.0,32.0,-100.00,SE,136,8.0,11.0,78,0.00,,,-99.99,,2013-05-23 08:41:00,
2013-05-23 02:52:00,37.0,32.0,-100.00,SSE,155,5.0,7.0,80,0.00,,,-99.99,,2013-05-23 08:52:00,
2013-05-23 03:01:00,37.0,32.0,-100.00,SSE,155,5.0,7.0,80,0.00,,,-99.99,,2013-05-23 09:01:00,
2013-05-23 03:11:00,37.0,32.0,-100.00,SSE,155,5.0,7.0,80,0.00,,,-99.99,,2013-05-23 09:11:00,
2013-05-23 03:21:00,38.0,32.0,-100.00,SSE,164,6.0,7.0,80,0.00,,,-99.99,,2013-05-23 09:21:00,
2013-05-23 03:32:00,38.0,32.0,-100.00,SSE,164,6.0,7.0,80,0.00,,,-99.99,,2013-05-23 09:32:00,
2013-05-23 03:42:00,39.0,32.0,-100.00,South,176,5.0,8.0,77,0.00,,,-99.99,,2013-05-23 09:42:00,
2013-05-23 03:53:00,38.0,32.0,-100.00,SSE,164,6.0,8.0,77,0.00,,,-99.99,,2013-05-23 09:53:00,
2013-05-23 04:02:00,38.0,32.0,-100.00,SSE,164,6.0,8.0,77,0.00,,,-99.99,,2013-05-23 10:02:00,
2013-05-23 04:12:00,38.0,32.0,-100.00,SSE,164,6.0,8.0,77,0.00,,,-99.99,,2013-05-23 10:12:00,
2013-05-23 04:22:00,38.0,31.0,-100.00,SSE,157,7.0,8.0,74,0.00,,,-99.99,,2013-05-23 10:22:00,
2013-05-23 04:32:00,38.0,31.0,-100.00,SSE,157,7.0,8.0,74,0.00,,,-99.99,,2013-05-23 10:32:00,
2013-05-23 04:42:00,39.0,30.0,-100.00,SSE,157,8.0,9.0,68,0.00,,,-99.99,,2013-05-23 10:42:00,
2013-05-23 04:52:00,39.0,30.0,-100.00,SSE,158,6.0,7.0,68,0.00,,,-99.99,,2013-05-23 10:52:00,
2013-05-23 05:02:00,39.0,30.0,-100.00,SSE,158,6.0,7.0,68,0.00,,,-99.99,,2013-05-23 11:02:00,
2013-05-23 05:11:00,39.0,30.0,-100.00,SSE,158,6.0,7.0,68,0.00,,,-99.99,,2013-05-23 11:11:00,
2013-05-23 05:21:00,40.0,31.0,-100.00,South,189,5.0,6.0,71,0.00,,,-99.99,,2013-05-23 11:21:00,
2013-05-23 05:32:00,40.0,31.0,-100.00,South,189,5.0,6.0,71,0.00,,,-99.99,,2013-05-23 11:32:00,
2013-05-23 05:42:00,40.0,31.0,-100.00,South,189,5.0,6.0,71,0.00,,,-99.99,,2013-05-23 11:42:00,
2013-05-23 05:52:00,40.0,31.0,-100.00,South,178,4.0,6.0,68,0.00,,,-99.99,,2013-05-23 11:52:00,
2013-05-23 06:01:00,40.0,31.0,-100.00,South,178,4.0,6.0,68,0.00,,,-99.99,,2013-05-23 12:01:00,
2013-05-23 06:11:00,41.0,30.0,-100.00,SSE,167,6.0,8.0,63,0.00,,,-99.99,,2013-05-23 12:11:00,
2013-05-23 06:21:00,41.0,30.0,-100.00,SSE,167,6.0,8.0,63,0.00,,,-99.99,,2013-05-23 12:21:00,
2013-05-23 06:32:00,41.0,30.0,-100.00,SSE,167,6.0,8.0,63,0.00,,,-99.99,,2013-05-23 12:32:00,
2013-05-23 06:41:00,43.0,27.0,-100.00,South,174,5.0,7.0,55,0.00,,,-99.99,,2013-05-23 12:41:00,
2013-05-23 06:52:00,43.0,27.0,-100.00,South,174,5.0,7.0,55,0.00,,,-99.99,,2013-05-23 12:52:00,
2013-05-23 07:01:00,43.0,27.0,-100.00,SSE,162,6.0,8.0,53,0.00,,,-99.99,,2013-05-23 13:01:00,
2013-05-23 07:11:00,43.0,27.0,-100.00,ESE,120,2.0,3.0,52,0.00,,,-99.99,,2013-05-23 13:11:00,
2013-05-23 07:21:00,43.0,26.0,-100.00,SSE,155,5.0,6.0,51,0.00,,,-99.99,,2013-05-23 13:21:00,
2013-05-23 07:31:00,43.0,26.0,-100.00,SSE,155,5.0,6.0,51,0.00,,,-99.99,,2013-05-23 13:31:00,
2013-05-23 07:41:00,44.0,29.0,-100.00,West,274,2.0,3.0,55,0.00,,,-99.99,,2013-05-23 13:41:00,
2013-05-23 07:52:00,44.0,29.0,-100.00,West,274,2.0,3.0,55,0.00,,,-99.99,,2013-05-23 13:52:00,
2013-05-23 08:01:00,44.0,29.0,-100.00,West,274,2.0,3.0,55,0.00,,,-99.99,,2013-05-23 14:01:00,
2013-05-23 08:11:00,44.0,29.0,-100.00,NNW,333,1.0,2.0,57,0.00,,,-99.99,,2013-05-23 14:11:00,
2013-05-23 08:21:00,45.0,31.0,-100.00,West,267,1.0,3.0,57,0.00,,,-99.99,,2013-05-23 14:21:00,
2013-05-23 08:32:00,45.0,31.0,-100.00,West,267,1.0,3.0,57,0.00,,,-99.99,,2013-05-23 14:32:00,
2013-05-23 08:41:00,47.0,30.0,-100.00,ENE,72,1.0,3.0,52,0.00,,,-99.99,,2013-05-23 14:41:00,
2013-05-23 08:52:00,47.0,30.0,-100.00,ENE,72,1.0,3.0,52,0.00,,,-99.99,,2013-05-23 14:52:00,
2013-05-23 09:01:00,47.0,30.0,-100.00,ENE,72,1.0,3.0,52,0.00,,,-99.99,,2013-05-23 15:01:00,
2013-05-23 09:11:00,47.0,30.0,-100.00,NW,319,2.0,3.0,51,0.00,,,-99.99,,2013-05-23 15:11:00,
2013-05-23 09:21:00,47.0,30.0,-100.00,NW,319,2.0,3.0,51,0.00,,,-99.99,,2013-05-23 15:21:00,
2013-05-23 09:32:00,47.0,30.0,-100.00,NW,319,2.0,3.0,51,0.00,,,-99.99,,2013-05-23 15:32:00,
2013-05-23 09:42:00,47.0,30.0,-100.00,NW,319,2.0,3.0,51,0.00,,,-99.99,,2013-05-23 15:42:00,
2013-05-23 10:12:00,49.0,29.0,-100.00,NNW,340,4.0,6.0,45,0.00,,,-99.99,,2013-05-23 16:12:00,
2013-05-23 10:22:00,49.0,29.0,-100.00,NNE,16,7.0,11.0,46,0.00,,,-99.99,,2013-05-23 16:22:00,
2013-05-23 10:33:00,49.0,29.0,-100.00,NNE,16,7.0,11.0,46,0.00,,,-99.99,,2013-05-23 16:33:00,
2013-05-23 10:42:00,50.0,32.0,-100.00,North,8,6.0,8.0,50,0.00,,,-99.99,,2013-05-23 16:42:00,
2013-05-23 10:52:00,50.0,32.0,-100.00,North,8,6.0,8.0,50,0.00,,,-99.99,,2013-05-23 16:52:00,
2013-05-23 11:02:00,51.0,31.0,-100.00,NNW,337,8.0,11.0,46,0.00,,,-99.99,,2013-05-23 17:02:00,
2013-05-23 11:11:00,51.0,31.0,-100.00,NNW,337,8.0,11.0,46,0.00,,,-99.99,,2013-05-23 17:11:00,
2013-05-23 11:22:00,51.0,31.0,-100.00,North,356,5.0,9.0,47,0.00,,,-99.99,,2013-05-23 17:22:00,
2013-05-23 11:33:00,52.0,34.0,-100.00,North,356,5.0,8.0,51,0.00,,,-99.99,,2013-05-23 17:33:00,
2013-05-23 11:42:00,52.0,34.0,-100.00,North,356,5.0,8.0,51,0.00,,,-99.99,,2013-05-23 17:42:00,
2013-05-23 11:52:00,53.0,34.0,-100.00,North,1,6.0,10.0,48,0.00,,,-99.99,,2013-05-23 17:52:00,
2013-05-23 12:01:00,53.0,34.0,-100.00,North,1,6.0,10.0,48,0.00,,,-99.99,,2013-05-23 18:01:00,
2013-05-23 12:11:00,53.0,34.0,-100.00,North,1,6.0,10.0,48,0.00,,,-99.99,,2013-05-23 18:11:00,
2013-05-23 12:21:00,53.0,33.0,-100.00,NE,45,8.0,10.0,47,0.00,,,-99.99,,2013-05-23 18:21:00,
2013-05-23 12:32:00,54.0,35.0,-100.00,North,8,7.0,13.0,48,0.00,,,-99.99,,2013-05-23 18:32:00,
2013-05-23 12:42:00,54.0,35.0,-100.00,North,8,7.0,13.0,48,0.00,,,-99.99,,2013-05-23 18:42:00,
2013-05-23 12:52:00,55.0,35.0,-100.00,North,352,8.0,11.0,45,0.00,,,-99.99,,2013-05-23 18:52:00,
2013-05-23 13:01:00,55.0,35.0,-100.00,North,352,8.0,11.0,45,0.00,,,-99.99,,2013-05-23 19:01:00,
2013-05-23 13:11:00,55.0,36.0,-100.00,NNE,21,8.0,11.0,48,0.00,,,-99.99,,2013-05-23 19:11:00,
2013-05-23 13:21:00,57.0,33.0,-100.00,NW,326,9.0,11.0,39,0.00,,,-99.99,,2013-05-23 19:21:00,
2013-05-23 13:31:00,58.0,32.0,-100.00,North,8,6.0,13.0,38,0.00,,,-99.99,,2013-05-23 19:31:00,
2013-05-23 13:41:00,58.0,32.0,-100.00,North,8,6.0,13.0,38,0.00,,,-99.99,,2013-05-23 19:41:00,
2013-05-23 13:52:00,58.0,33.0,-100.00,NNE,23,4.0,6.0,39,0.00,,,-99.99,,2013-05-23 19:52:00,
2013-05-23 14:02:00,58.0,33.0,-100.00,NNE,23,4.0,6.0,39,0.00,,,-99.99,,2013-05-23 20:02:00,
2013-05-23 14:11:00,58.0,32.0,-100.00,NNW,336,8.0,12.0,37,0.00,,,-99.99,,2013-05-23 20:11:00,
2013-05-23 14:21:00,60.0,33.0,-100.00,North,357,6.0,9.0,37,0.00,,,-99.99,,2013-05-23 20:21:00,
2013-05-23 14:32:00,60.0,33.0,-100.00,North,357,6.0,9.0,37,0.00,,,-99.99,,2013-05-23 20:32:00,
2013-05-23 14:42:00,60.0,33.0,-100.00,North,357,6.0,9.0,37,0.00,,,-99.99,,2013-05-23 20:42:00,
2013-05-23 14:52:00,59.0,32.0,-100.00,NNE,16,10.0,13.0,36,0.00,,,-99.99,,2013-05-23 20:52:00,
2013-05-23 15:00:00,60.0,34.0,-100.00,NNE,14,11.0,15.0,38,0.00,,,-99.99,,2013-05-23 21:00:00,
2013-05-23 15:01:00,59.0,32.0,-100.00,NNE,16,10.0,13.0,36,0.00,,,-99.99,,2013-05-23 21:01:00,
2013-05-23 15:11:00,60.0,34.0,-100.00,NNW,329,7.0,9.0,38,0.00,,,-99.99,,2013-05-23 21:11:00,
2013-05-23 15:21:00,60.0,34.0,-100.00,NNE,14,11.0,15.0,38,0.00,,,-99.99,,2013-05-23 21:21:00,
2013-05-23 15:32:00,60.0,34.0,-100.00,NNE,14,11.0,15.0,38,0.00,,,-99.99,,2013-05-23 21:32:00,
2013-05-23 15:43:00,60.0,34.0,-100.00,NNE,14,11.0,15.0,38,0.00,,,-99.99,,2013-05-23 21:43:00,
2013-05-23 15:53:00,60.0,34.0,-100.00,NNE,14,11.0,15.0,38,0.00,,,-99.99,,2013-05-23 21:53:00,
2013-05-23 16:12:00,62.0,35.0,-100.00,WNW,302,6.0,12.0,35,0.00,,,-99.99,,2013-05-23 22:12:00,
2013-05-23 16:22:00,62.0,33.0,-100.00,North,349,8.0,11.0,35,0.00,,,-99.99,,2013-05-23 22:22:00,
2013-05-23 16:33:00,62.0,33.0,-100.00,North,349,8.0,11.0,35,0.00,,,-99.99,,2013-05-23 22:33:00,
2013-05-23 16:42:00,62.0,34.0,-100.00,NW,320,6.0,10.0,35,0.00,,,-99.99,,2013-05-23 22:42:00,
2013-05-23 16:52:00,62.0,34.0,-100.00,NW,320,6.0,10.0,35,0.00,,,-99.99,,2013-05-23 22:52:00,
2013-05-23 17:01:00,62.0,34.0,-100.00,NW,320,6.0,10.0,35,0.00,,,-99.99,,2013-05-23 23:01:00,
2013-05-23 17:11:00,63.0,34.0,-100.00,North,352,6.0,9.0,34,0.00,,,-99.99,,2013-05-23 23:11:00,
2013-05-23 17:21:00,63.0,34.0,-100.00,WNW,298,7.0,11.0,34,0.00,,,-99.99,,2013-05-23 23:21:00,
2013-05-23 17:31:00,63.0,34.0,-100.00,WNW,298,7.0,11.0,34,0.00,,,-99.99,,2013-05-23 23:31:00,
2013-05-23 17:42:00,63.0,34.0,-100.00,WNW,298,7.0,11.0,34,0.00,,,-99.99,,2013-05-23 23:42:00,
2013-05-23 17:52:00,63.0,34.0,-100.00,NNW,332,5.0,9.0,34,0.00,,,-99.99,,2013-05-23 23:52:00,
2013-05-23 18:01:00,63.0,34.0,-100.00,NNW,332,5.0,9.0,34,0.00,,,-99.99,,2013-05-24 00:01:00,
2013-05-23 18:11:00,62.0,33.0,-100.00,North,356,8.0,13.0,34,0.00,,,-99.99,,2013-05-24 00:11:00,
2013-05-23 18:21:00,62.0,33.0,-100.00,North,10,7.0,9.0,33,0.00,,,-99.99,,2013-05-24 00:21:00,
2013-05-23 18:31:00,62.0,33.0,-100.00,North,10,7.0,9.0,33,0.00,,,-99.99,,2013-05-24 00:31:00,
2013-05-23 18:42:00,62.0,33.0,-100.00,West,267,4.0,6.0,34,0.00,,,-99.99,,2013-05-24 00:42:00,
2013-05-23 18:52:00,60.0,30.0,-100.00,WNW,287,12.0,19.0,31,0.00,,,-99.99,,2013-05-24 00:52:00,
2013-05-23 19:01:00,60.0,30.0,-100.00,WNW,287,12.0,19.0,31,0.00,,,-99.99,,2013-05-24 01:01:00,
2013-05-23 19:12:00,60.0,30.0,-100.00,WNW,287,12.0,19.0,31,0.00,,,-99.99,,2013-05-24 01:12:00,
2013-05-23 19:22:00,57.0,29.0,-100.00,West,280,9.0,18.0,33,0.00,,,-99.99,,2013-05-24 01:22:00,
2013-05-23 19:32:00,57.0,29.0,-100.00,West,280,9.0,18.0,33,0.00,,,-99.99,,2013-05-24 01:32:00,
2013-05-23 19:41:00,55.0,26.0,-100.00,West,281,10.0,20.0,32,0.00,,,-99.99,,2013-05-24 01:41:00,
2013-05-23 19:52:00,54.0,25.0,-100.00,West,270,6.0,10.0,32,0.00,,,-99.99,,2013-05-24 01:52:00,
2013-05-23 20:01:00,54.0,25.0,-100.00,West,270,6.0,10.0,32,0.00,,,-99.99,,2013-05-24 02:01:00,
2013-05-23 20:11:00,54.0,25.0,-100.00,West,270,6.0,10.0,32,0.00,,,-99.99,,2013-05-24 02:11:00,
2013-05-23 20:21:00,54.0,25.0,-100.00,West,277,10.0,17.0,32,0.00,,,-99.99,,2013-05-24 02:21:00,
2013-05-23 20:32:00,54.0,25.0,-100.00,West,277,10.0,17.0,32,0.00,,,-99.99,,2013-05-24 02:32:00,
2013-05-23 20:42:00,53.0,25.0,-100.00,NW,306,6.0,10.0,33,0.00,,,-99.99,,2013-05-24 02:42:00,
2013-05-23 20:52:00,52.0,31.0,-100.00,NW,320,8.0,13.0,44,0.00,,,-99.99,,2013-05-24 02:52:00,
2013-05-23 21:02:00,52.0,31.0,-100.00,NW,320,8.0,13.0,44,0.00,,,-99.99,,2013-05-24 03:02:00,
2013-05-23 21:11:00,52.0,31.0,-100.00,NW,320,8.0,13.0,44,0.00,,,-99.99,,2013-05-24 03:11:00,
2013-05-23 21:21:00,52.0,32.0,-100.00,West,278,6.0,11.0,45,0.00,,,-99.99,,2013-05-24 03:21:00,
2013-05-23 21:33:00,52.0,32.0,-100.00,West,278,6.0,11.0,45,0.00,,,-99.99,,2013-05-24 03:33:00,
2013-05-23 21:42:00,52.0,33.0,-100.00,NNW,335,6.0,10.0,48,0.00,,,-99.99,,2013-05-24 03:42:00,
2013-05-23 21:53:00,52.0,35.0,-100.00,NNW,337,2.0,4.0,53,0.00,,,-99.99,,2013-05-24 03:53:00,
2013-05-23 22:03:00,52.0,35.0,-100.00,NNW,337,2.0,4.0,53,0.00,,,-99.99,,2013-05-24 04:03:00,
2013-05-23 22:12:00,51.0,37.0,-100.00,West,277,2.0,4.0,60,0.00,,,-99.99,,2013-05-24 04:12:00,
2013-05-23 22:22:00,51.0,37.0,-100.00,West,277,2.0,4.0,60,0.00,,,-99.99,,2013-05-24 04:22:00,
2013-05-23 22:33:00,51.0,37.0,-100.00,West,277,2.0,4.0,60,0.00,,,-99.99,,2013-05-24 04:33:00,
2013-05-23 22:42:00,48.0,39.0,-100.00,WSW,258,4.0,6.0,70,0.04,,,-99.99,,2013-05-24 04:42:00,
2013-05-23 22:53:00,48.0,37.0,-100.00,SE,136,8.0,14.0,65,0.00,,,-99.99,,2013-05-24 04:53:00,
2013-05-23 23:02:00,48.0,37.0,-100.00,SE,136,8.0,14.0,65,0.00,,,-99.99,,2013-05-24 05:02:00,
2013-05-23 23:12:00,48.0,37.0,-100.00,SE,133,11.0,15.0,66,0.00,,,-99.99,,2013-05-24 05:12:00,
2013-05-23 23:22:00,48.0,38.0,-100.00,SSW,195,11.0,13.0,70,0.00,,,-99.99,,2013-05-24 05:22:00,
2013-05-23 23:32:00,48.0,38.0,-100.00,SSW,195,11.0,13.0,70,0.00,,,-99.99,,2013-05-24 05:32:00,
2013-05-23 23:42:00,48.0,38.0,-100.00,SSW,195,11.0,13.0,70,0.00,,,-99.99,,2013-05-24 05:42:00,
2013-05-23 23:52:00,47.0,38.0,-100.00,South,174,10.0,14.0,71,0.00,,,-99.99,,2013-05-24 05:52:00,